sensor_id;sensor_type;location;lat;lon;timestamp;P1;durP1;ratioP1;P2;durP2;ratioP2
19137;SDS011;68178;52.188;5.598;2023-04-25T00:00:20;15.88;;;5.30;;
19137;SDS011;68178;52.188;5.598;2023-04-25T00:02:46;16.13;;;4.82;;
19137;SDS011;68178;52.188;5.598;2023-04-25T00:05:11;16.30;;;5.07;;
19137;SDS011;68178;52.188;5.598;2023-04-25T00:07:40;10.10;;;4.32;;
19137;SDS011;68178;52.188;5.598;2023-04-25T00:10:07;15.43;;;4.65;;
19137;SDS011;68178;52.188;5.598;2023-04-25T00:12:34;15.43;;;4.60;;
19137;SDS011;68178;52.188;5.598;2023-04-25T00:15:00;17.92;;;4.70;;
19137;SDS011;68178;52.188;5.598;2023-04-25T00:17:26;15.40;;;4.85;;
19137;SDS011;68178;52.188;5.598;2023-04-25T00:19:52;11.00;;;5.05;;
19137;SDS011;68178;52.188;5.598;2023-04-25T00:22:18;14.15;;;5.05;;
19137;SDS011;68178;52.188;5.598;2023-04-25T00:24:43;18.33;;;4.95;;
19137;SDS011;68178;52.188;5.598;2023-04-25T00:27:09;19.48;;;5.63;;
19137;SDS011;68178;52.188;5.598;2023-04-25T00:29:34;22.33;;;6.05;;
19137;SDS011;68178;52.188;5.598;2023-04-25T00:32:00;20.30;;;6.28;;
19137;SDS011;68178;52.188;5.598;2023-04-25T00:34:26;25.80;;;6.95;;
19137;SDS011;68178;52.188;5.598;2023-04-25T00:36:52;27.50;;;6.88;;
19137;SDS011;68178;52.188;5.598;2023-04-25T00:39:20;17.05;;;6.38;;
19137;SDS011;68178;52.188;5.598;2023-04-25T00:41:46;23.85;;;6.00;;
19137;SDS011;68178;52.188;5.598;2023-04-25T00:44:12;20.25;;;6.18;;
19137;SDS011;68178;52.188;5.598;2023-04-25T00:46:42;25.50;;;7.18;;
19137;SDS011;68178;52.188;5.598;2023-04-25T00:49:07;23.58;;;7.43;;
19137;SDS011;68178;52.188;5.598;2023-04-25T00:51:33;17.55;;;5.72;;
19137;SDS011;68178;52.188;5.598;2023-04-25T00:53:59;22.35;;;6.60;;
19137;SDS011;68178;52.188;5.598;2023-04-25T00:56:26;21.58;;;6.65;;
19137;SDS011;68178;52.188;5.598;2023-04-25T00:58:52;20.23;;;6.25;;
19137;SDS011;68178;52.188;5.598;2023-04-25T01:01:21;24.05;;;6.80;;
19137;SDS011;68178;52.188;5.598;2023-04-25T01:03:47;21.00;;;7.03;;
19137;SDS011;68178;52.188;5.598;2023-04-25T01:06:14;23.13;;;6.50;;
19137;SDS011;68178;52.188;5.598;2023-04-25T01:08:41;20.65;;;6.30;;
19137;SDS011;68178;52.188;5.598;2023-04-25T01:11:06;29.83;;;6.63;;
19137;SDS011;68178;52.188;5.598;2023-04-25T01:13:32;21.85;;;6.40;;
19137;SDS011;68178;52.188;5.598;2023-04-25T01:15:59;24.15;;;7.22;;
19137;SDS011;68178;52.188;5.598;2023-04-25T01:18:25;24.08;;;7.40;;
19137;SDS011;68178;52.188;5.598;2023-04-25T01:20:51;27.48;;;6.85;;
19137;SDS011;68178;52.188;5.598;2023-04-25T01:23:17;23.92;;;7.57;;
19137;SDS011;68178;52.188;5.598;2023-04-25T01:25:44;18.92;;;6.63;;
19137;SDS011;68178;52.188;5.598;2023-04-25T01:28:10;21.02;;;6.70;;
19137;SDS011;68178;52.188;5.598;2023-04-25T01:30:36;19.60;;;6.22;;
19137;SDS011;68178;52.188;5.598;2023-04-25T01:33:02;20.38;;;6.93;;
19137;SDS011;68178;52.188;5.598;2023-04-25T01:35:29;15.02;;;5.60;;
19137;SDS011;68178;52.188;5.598;2023-04-25T01:37:55;21.42;;;6.43;;
19137;SDS011;68178;52.188;5.598;2023-04-25T01:40:21;21.58;;;6.55;;
19137;SDS011;68178;52.188;5.598;2023-04-25T01:42:47;14.10;;;5.70;;
19137;SDS011;68178;52.188;5.598;2023-04-25T01:45:13;17.23;;;5.00;;
19137;SDS011;68178;52.188;5.598;2023-04-25T01:47:48;21.17;;;6.03;;
19137;SDS011;68178;52.188;5.598;2023-04-25T01:50:15;22.60;;;5.82;;
19137;SDS011;68178;52.188;5.598;2023-04-25T01:52:43;23.00;;;5.03;;
19137;SDS011;68178;52.188;5.598;2023-04-25T01:55:09;13.15;;;4.75;;
19137;SDS011;68178;52.188;5.598;2023-04-25T01:57:35;22.33;;;5.43;;
19137;SDS011;68178;52.188;5.598;2023-04-25T02:00:01;15.30;;;4.80;;
19137;SDS011;68178;52.188;5.598;2023-04-25T02:02:29;21.42;;;5.50;;
19137;SDS011;68178;52.188;5.598;2023-04-25T02:04:54;16.60;;;4.90;;
19137;SDS011;68178;52.188;5.598;2023-04-25T02:07:21;15.30;;;5.50;;
19137;SDS011;68178;52.188;5.598;2023-04-25T02:09:46;19.83;;;6.20;;
19137;SDS011;68178;52.188;5.598;2023-04-25T02:12:12;13.07;;;4.60;;
19137;SDS011;68178;52.188;5.598;2023-04-25T02:14:38;16.08;;;4.35;;
19137;SDS011;68178;52.188;5.598;2023-04-25T02:17:03;12.52;;;4.50;;
19137;SDS011;68178;52.188;5.598;2023-04-25T02:19:29;15.10;;;4.60;;
19137;SDS011;68178;52.188;5.598;2023-04-25T02:21:57;16.60;;;4.47;;
19137;SDS011;68178;52.188;5.598;2023-04-25T02:24:23;11.68;;;4.00;;
19137;SDS011;68178;52.188;5.598;2023-04-25T02:26:48;12.13;;;3.78;;
19137;SDS011;68178;52.188;5.598;2023-04-25T02:29:14;10.80;;;4.70;;
19137;SDS011;68178;52.188;5.598;2023-04-25T02:31:40;13.05;;;3.95;;
19137;SDS011;68178;52.188;5.598;2023-04-25T02:34:06;16.60;;;3.80;;
19137;SDS011;68178;52.188;5.598;2023-04-25T02:36:31;16.27;;;4.50;;
19137;SDS011;68178;52.188;5.598;2023-04-25T02:38:59;16.02;;;4.60;;
19137;SDS011;68178;52.188;5.598;2023-04-25T02:41:25;13.93;;;4.07;;
19137;SDS011;68178;52.188;5.598;2023-04-25T02:43:51;10.32;;;4.22;;
19137;SDS011;68178;52.188;5.598;2023-04-25T02:46:17;14.15;;;4.45;;
19137;SDS011;68178;52.188;5.598;2023-04-25T02:48:42;10.70;;;4.30;;
19137;SDS011;68178;52.188;5.598;2023-04-25T02:51:08;18.73;;;4.25;;
19137;SDS011;68178;52.188;5.598;2023-04-25T02:53:40;13.85;;;4.38;;
19137;SDS011;68178;52.188;5.598;2023-04-25T02:56:06;12.32;;;4.07;;
19137;SDS011;68178;52.188;5.598;2023-04-25T02:58:31;9.23;;;4.43;;
19137;SDS011;68178;52.188;5.598;2023-04-25T03:00:57;20.45;;;4.82;;
19137;SDS011;68178;52.188;5.598;2023-04-25T03:03:22;23.10;;;6.15;;
19137;SDS011;68178;52.188;5.598;2023-04-25T03:05:48;13.43;;;4.93;;
19137;SDS011;68178;52.188;5.598;2023-04-25T03:08:17;17.92;;;4.78;;
19137;SDS011;68178;52.188;5.598;2023-04-25T03:10:44;15.50;;;4.75;;
19137;SDS011;68178;52.188;5.598;2023-04-25T03:13:10;15.15;;;5.03;;
19137;SDS011;68178;52.188;5.598;2023-04-25T03:15:36;17.33;;;4.88;;
19137;SDS011;68178;52.188;5.598;2023-04-25T03:18:02;17.42;;;5.82;;
19137;SDS011;68178;52.188;5.598;2023-04-25T03:20:27;15.02;;;5.25;;
19137;SDS011;68178;52.188;5.598;2023-04-25T03:22:53;18.65;;;5.78;;
19137;SDS011;68178;52.188;5.598;2023-04-25T03:25:19;14.82;;;4.93;;
19137;SDS011;68178;52.188;5.598;2023-04-25T03:27:44;13.68;;;4.55;;
19137;SDS011;68178;52.188;5.598;2023-04-25T03:30:10;16.33;;;5.05;;
19137;SDS011;68178;52.188;5.598;2023-04-25T03:32:36;14.02;;;4.70;;
19137;SDS011;68178;52.188;5.598;2023-04-25T03:35:02;11.80;;;4.30;;
19137;SDS011;68178;52.188;5.598;2023-04-25T03:37:28;13.38;;;4.88;;
19137;SDS011;68178;52.188;5.598;2023-04-25T03:39:53;18.17;;;5.22;;
19137;SDS011;68178;52.188;5.598;2023-04-25T03:42:19;12.23;;;4.65;;
19137;SDS011;68178;52.188;5.598;2023-04-25T03:44:47;27.98;;;7.10;;
19137;SDS011;68178;52.188;5.598;2023-04-25T03:47:13;22.10;;;6.70;;
19137;SDS011;68178;52.188;5.598;2023-04-25T03:49:39;27.35;;;6.30;;
19137;SDS011;68178;52.188;5.598;2023-04-25T03:52:04;22.30;;;6.85;;
19137;SDS011;68178;52.188;5.598;2023-04-25T03:54:30;30.67;;;7.35;;
19137;SDS011;68178;52.188;5.598;2023-04-25T03:56:55;22.92;;;6.40;;
19137;SDS011;68178;52.188;5.598;2023-04-25T03:59:21;27.17;;;6.53;;
19137;SDS011;68178;52.188;5.598;2023-04-25T04:01:46;23.20;;;6.78;;
19137;SDS011;68178;52.188;5.598;2023-04-25T04:04:12;9.65;;;5.97;;
19137;SDS011;68178;52.188;5.598;2023-04-25T04:06:37;19.45;;;5.72;;
19137;SDS011;68178;52.188;5.598;2023-04-25T04:09:04;20.92;;;5.80;;
19137;SDS011;68178;52.188;5.598;2023-04-25T04:11:33;16.40;;;5.68;;
19137;SDS011;68178;52.188;5.598;2023-04-25T04:14:01;20.77;;;6.22;;
19137;SDS011;68178;52.188;5.598;2023-04-25T04:16:27;20.27;;;5.25;;
19137;SDS011;68178;52.188;5.598;2023-04-25T04:18:55;16.95;;;5.45;;
19137;SDS011;68178;52.188;5.598;2023-04-25T04:21:21;20.30;;;5.35;;
19137;SDS011;68178;52.188;5.598;2023-04-25T04:23:46;18.90;;;5.35;;
19137;SDS011;68178;52.188;5.598;2023-04-25T04:26:12;15.00;;;5.22;;
19137;SDS011;68178;52.188;5.598;2023-04-25T04:28:48;16.98;;;4.70;;
19137;SDS011;68178;52.188;5.598;2023-04-25T04:31:19;17.75;;;6.90;;
19137;SDS011;68178;52.188;5.598;2023-04-25T04:33:45;13.55;;;5.15;;
19137;SDS011;68178;52.188;5.598;2023-04-25T04:36:11;17.00;;;5.32;;
19137;SDS011;68178;52.188;5.598;2023-04-25T04:38:37;12.07;;;4.82;;
19137;SDS011;68178;52.188;5.598;2023-04-25T04:41:02;14.40;;;4.93;;
19137;SDS011;68178;52.188;5.598;2023-04-25T04:43:28;17.35;;;5.30;;
19137;SDS011;68178;52.188;5.598;2023-04-25T04:45:54;14.48;;;4.75;;
19137;SDS011;68178;52.188;5.598;2023-04-25T04:48:21;13.07;;;4.82;;
19137;SDS011;68178;52.188;5.598;2023-04-25T04:50:47;11.98;;;4.53;;
19137;SDS011;68178;52.188;5.598;2023-04-25T04:53:13;13.02;;;5.65;;
19137;SDS011;68178;52.188;5.598;2023-04-25T04:55:38;15.68;;;5.80;;
19137;SDS011;68178;52.188;5.598;2023-04-25T04:58:06;14.85;;;5.53;;
19137;SDS011;68178;52.188;5.598;2023-04-25T05:00:32;16.02;;;4.70;;
19137;SDS011;68178;52.188;5.598;2023-04-25T05:02:58;12.32;;;4.63;;
19137;SDS011;68178;52.188;5.598;2023-04-25T05:05:24;12.95;;;3.75;;
19137;SDS011;68178;52.188;5.598;2023-04-25T05:07:49;10.35;;;4.07;;
19137;SDS011;68178;52.188;5.598;2023-04-25T05:10:18;15.43;;;3.78;;
19137;SDS011;68178;52.188;5.598;2023-04-25T05:12:44;10.25;;;3.28;;
19137;SDS011;68178;52.188;5.598;2023-04-25T05:15:10;7.78;;;3.35;;
19137;SDS011;68178;52.188;5.598;2023-04-25T05:17:36;9.63;;;3.60;;
19137;SDS011;68178;52.188;5.598;2023-04-25T05:20:01;7.10;;;2.88;;
19137;SDS011;68178;52.188;5.598;2023-04-25T05:22:27;7.40;;;3.13;;
19137;SDS011;68178;52.188;5.598;2023-04-25T05:24:53;11.45;;;3.42;;
19137;SDS011;68178;52.188;5.598;2023-04-25T05:27:19;7.45;;;2.67;;
19137;SDS011;68178;52.188;5.598;2023-04-25T05:29:45;8.57;;;3.05;;
19137;SDS011;68178;52.188;5.598;2023-04-25T05:32:10;5.95;;;2.80;;
19137;SDS011;68178;52.188;5.598;2023-04-25T05:34:36;9.98;;;3.08;;
19137;SDS011;68178;52.188;5.598;2023-04-25T05:37:02;7.50;;;2.70;;
19137;SDS011;68178;52.188;5.598;2023-04-25T05:39:29;8.50;;;2.80;;
19137;SDS011;68178;52.188;5.598;2023-04-25T05:41:54;10.90;;;3.10;;
19137;SDS011;68178;52.188;5.598;2023-04-25T05:44:20;11.20;;;3.28;;
19137;SDS011;68178;52.188;5.598;2023-04-25T05:46:45;9.30;;;2.30;;
19137;SDS011;68178;52.188;5.598;2023-04-25T05:49:11;10.45;;;2.60;;
19137;SDS011;68178;52.188;5.598;2023-04-25T05:51:37;10.65;;;2.67;;
19137;SDS011;68178;52.188;5.598;2023-04-25T05:54:02;11.05;;;3.00;;
19137;SDS011;68178;52.188;5.598;2023-04-25T05:56:28;11.65;;;2.80;;
19137;SDS011;68178;52.188;5.598;2023-04-25T05:58:53;8.00;;;2.70;;
19137;SDS011;68178;52.188;5.598;2023-04-25T06:01:20;10.70;;;2.42;;
19137;SDS011;68178;52.188;5.598;2023-04-25T06:03:46;12.18;;;2.88;;
19137;SDS011;68178;52.188;5.598;2023-04-25T06:06:12;11.60;;;3.17;;
19137;SDS011;68178;52.188;5.598;2023-04-25T06:08:37;9.18;;;2.50;;
19137;SDS011;68178;52.188;5.598;2023-04-25T06:11:03;13.27;;;3.42;;
19137;SDS011;68178;52.188;5.598;2023-04-25T06:13:29;12.75;;;3.05;;
19137;SDS011;68178;52.188;5.598;2023-04-25T06:15:55;8.48;;;2.70;;
19137;SDS011;68178;52.188;5.598;2023-04-25T06:18:20;8.68;;;2.90;;
19137;SDS011;68178;52.188;5.598;2023-04-25T06:20:46;9.48;;;3.03;;
19137;SDS011;68178;52.188;5.598;2023-04-25T06:23:11;6.50;;;3.03;;
19137;SDS011;68178;52.188;5.598;2023-04-25T06:25:37;9.55;;;2.90;;
19137;SDS011;68178;52.188;5.598;2023-04-25T06:28:02;6.95;;;3.25;;
19137;SDS011;68178;52.188;5.598;2023-04-25T06:30:28;11.65;;;3.20;;
19137;SDS011;68178;52.188;5.598;2023-04-25T06:32:54;9.98;;;3.33;;
19137;SDS011;68178;52.188;5.598;2023-04-25T06:35:20;10.57;;;3.67;;
19137;SDS011;68178;52.188;5.598;2023-04-25T06:37:49;13.65;;;3.97;;
19137;SDS011;68178;52.188;5.598;2023-04-25T06:40:14;10.57;;;3.47;;
19137;SDS011;68178;52.188;5.598;2023-04-25T06:42:42;10.15;;;2.30;;
19137;SDS011;68178;52.188;5.598;2023-04-25T06:45:10;10.75;;;2.70;;
19137;SDS011;68178;52.188;5.598;2023-04-25T06:47:35;10.57;;;3.13;;
19137;SDS011;68178;52.188;5.598;2023-04-25T06:50:01;6.38;;;2.05;;
19137;SDS011;68178;52.188;5.598;2023-04-25T06:52:29;10.35;;;2.00;;
19137;SDS011;68178;52.188;5.598;2023-04-25T06:54:55;7.32;;;1.92;;
19137;SDS011;68178;52.188;5.598;2023-04-25T06:57:23;7.53;;;1.92;;
19137;SDS011;68178;52.188;5.598;2023-04-25T06:59:49;7.32;;;1.65;;
19137;SDS011;68178;52.188;5.598;2023-04-25T07:02:14;11.25;;;2.10;;
19137;SDS011;68178;52.188;5.598;2023-04-25T07:04:40;6.38;;;2.30;;
19137;SDS011;68178;52.188;5.598;2023-04-25T07:07:05;9.20;;;1.42;;
19137;SDS011;68178;52.188;5.598;2023-04-25T07:09:31;6.47;;;1.83;;
19137;SDS011;68178;52.188;5.598;2023-04-25T07:11:58;5.35;;;1.60;;
19137;SDS011;68178;52.188;5.598;2023-04-25T07:14:26;6.55;;;1.60;;
19137;SDS011;68178;52.188;5.598;2023-04-25T07:16:52;11.13;;;2.47;;
19137;SDS011;68178;52.188;5.598;2023-04-25T07:19:17;11.27;;;2.75;;
19137;SDS011;68178;52.188;5.598;2023-04-25T07:21:43;9.95;;;2.10;;
19137;SDS011;68178;52.188;5.598;2023-04-25T07:24:08;9.65;;;2.25;;
19137;SDS011;68178;52.188;5.598;2023-04-25T07:26:34;7.07;;;2.30;;
19137;SDS011;68178;52.188;5.598;2023-04-25T07:29:00;11.02;;;2.80;;
19137;SDS011;68178;52.188;5.598;2023-04-25T07:31:28;9.57;;;1.95;;
19137;SDS011;68178;52.188;5.598;2023-04-25T07:33:53;7.18;;;1.60;;
19137;SDS011;68178;52.188;5.598;2023-04-25T07:36:22;9.38;;;1.70;;
19137;SDS011;68178;52.188;5.598;2023-04-25T07:38:47;7.22;;;1.70;;
19137;SDS011;68178;52.188;5.598;2023-04-25T07:41:13;8.15;;;1.58;;
19137;SDS011;68178;52.188;5.598;2023-04-25T07:43:38;8.30;;;2.00;;
19137;SDS011;68178;52.188;5.598;2023-04-25T07:46:04;6.35;;;1.58;;
19137;SDS011;68178;52.188;5.598;2023-04-25T07:48:32;11.23;;;1.77;;
19137;SDS011;68178;52.188;5.598;2023-04-25T07:50:57;5.40;;;1.52;;
19137;SDS011;68178;52.188;5.598;2023-04-25T07:53:23;6.45;;;1.50;;
19137;SDS011;68178;52.188;5.598;2023-04-25T07:55:48;5.53;;;1.23;;
19137;SDS011;68178;52.188;5.598;2023-04-25T07:58:15;5.90;;;1.48;;
19137;SDS011;68178;52.188;5.598;2023-04-25T08:00:46;7.20;;;1.83;;
19137;SDS011;68178;52.188;5.598;2023-04-25T08:03:11;10.02;;;1.83;;
19137;SDS011;68178;52.188;5.598;2023-04-25T08:05:37;7.93;;;1.52;;
19137;SDS011;68178;52.188;5.598;2023-04-25T08:08:02;6.32;;;1.58;;
19137;SDS011;68178;52.188;5.598;2023-04-25T08:10:29;8.90;;;2.03;;
19137;SDS011;68178;52.188;5.598;2023-04-25T08:12:55;6.93;;;1.42;;
19137;SDS011;68178;52.188;5.598;2023-04-25T08:15:20;8.98;;;2.08;;
19137;SDS011;68178;52.188;5.598;2023-04-25T08:17:46;3.63;;;1.40;;
19137;SDS011;68178;52.188;5.598;2023-04-25T08:20:11;6.70;;;1.90;;
19137;SDS011;68178;52.188;5.598;2023-04-25T08:22:37;6.50;;;1.95;;
19137;SDS011;68178;52.188;5.598;2023-04-25T08:25:03;9.80;;;1.60;;
19137;SDS011;68178;52.188;5.598;2023-04-25T08:27:28;4.15;;;1.20;;
19137;SDS011;68178;52.188;5.598;2023-04-25T08:29:55;7.05;;;1.90;;
19137;SDS011;68178;52.188;5.598;2023-04-25T08:32:20;5.97;;;1.10;;
19137;SDS011;68178;52.188;5.598;2023-04-25T08:34:46;7.50;;;1.42;;
19137;SDS011;68178;52.188;5.598;2023-04-25T08:37:12;9.23;;;1.38;;
19137;SDS011;68178;52.188;5.598;2023-04-25T08:39:37;3.83;;;1.15;;
19137;SDS011;68178;52.188;5.598;2023-04-25T08:42:05;2.67;;;1.00;;
19137;SDS011;68178;52.188;5.598;2023-04-25T08:44:34;3.35;;;1.17;;
19137;SDS011;68178;52.188;5.598;2023-04-25T08:47:03;5.30;;;1.45;;
19137;SDS011;68178;52.188;5.598;2023-04-25T08:49:32;3.58;;;1.20;;
19137;SDS011;68178;52.188;5.598;2023-04-25T08:52:00;5.72;;;1.70;;
19137;SDS011;68178;52.188;5.598;2023-04-25T08:54:27;6.22;;;1.30;;
19137;SDS011;68178;52.188;5.598;2023-04-25T08:56:54;8.43;;;1.58;;
19137;SDS011;68178;52.188;5.598;2023-04-25T08:59:22;5.28;;;1.23;;
19137;SDS011;68178;52.188;5.598;2023-04-25T09:01:48;9.30;;;1.50;;
19137;SDS011;68178;52.188;5.598;2023-04-25T09:04:15;4.95;;;1.35;;
19137;SDS011;68178;52.188;5.598;2023-04-25T09:06:41;7.28;;;1.60;;
19137;SDS011;68178;52.188;5.598;2023-04-25T09:09:07;3.63;;;1.38;;
19137;SDS011;68178;52.188;5.598;2023-04-25T09:11:35;9.80;;;1.48;;
19137;SDS011;68178;52.188;5.598;2023-04-25T09:14:11;5.95;;;1.30;;
19137;SDS011;68178;52.188;5.598;2023-04-25T09:16:58;6.78;;;1.55;;
19137;SDS011;68178;52.188;5.598;2023-04-25T09:19:35;4.45;;;1.23;;
19137;SDS011;68178;52.188;5.598;2023-04-25T09:22:05;5.22;;;2.10;;
19137;SDS011;68178;52.188;5.598;2023-04-25T09:26:59;6.43;;;1.67;;
19137;SDS011;68178;52.188;5.598;2023-04-25T09:29:31;4.80;;;1.05;;
19137;SDS011;68178;52.188;5.598;2023-04-25T09:34:44;4.25;;;1.77;;
19137;SDS011;68178;52.188;5.598;2023-04-25T09:37:21;3.63;;;1.27;;
19137;SDS011;68178;52.188;5.598;2023-04-25T09:39:53;4.72;;;1.35;;
19137;SDS011;68178;52.188;5.598;2023-04-25T09:42:30;6.22;;;1.65;;
19137;SDS011;68178;52.188;5.598;2023-04-25T09:44:57;7.15;;;1.40;;
19137;SDS011;68178;52.188;5.598;2023-04-25T09:47:24;7.45;;;1.20;;
19137;SDS011;68178;52.188;5.598;2023-04-25T09:49:53;4.85;;;1.40;;
19137;SDS011;68178;52.188;5.598;2023-04-25T09:52:21;4.90;;;1.25;;
19137;SDS011;68178;52.188;5.598;2023-04-25T09:54:48;4.05;;;1.27;;
19137;SDS011;68178;52.188;5.598;2023-04-25T09:57:18;4.60;;;1.20;;
19137;SDS011;68178;52.188;5.598;2023-04-25T09:59:47;3.50;;;1.25;;
19137;SDS011;68178;52.188;5.598;2023-04-25T10:02:18;7.03;;;1.35;;
19137;SDS011;68178;52.188;5.598;2023-04-25T10:04:47;4.75;;;1.45;;
19137;SDS011;68178;52.188;5.598;2023-04-25T10:07:13;4.30;;;0.80;;
19137;SDS011;68178;52.188;5.598;2023-04-25T10:09:40;1.92;;;0.93;;
19137;SDS011;68178;52.188;5.598;2023-04-25T10:12:10;3.72;;;1.00;;
19137;SDS011;68178;52.188;5.598;2023-04-25T10:14:37;4.50;;;1.08;;
19137;SDS011;68178;52.188;5.598;2023-04-25T10:17:03;5.57;;;1.70;;
19137;SDS011;68178;52.188;5.598;2023-04-25T10:19:30;5.80;;;1.13;;
19137;SDS011;68178;52.188;5.598;2023-04-25T10:22:00;2.17;;;1.10;;
19137;SDS011;68178;52.188;5.598;2023-04-25T10:24:30;4.22;;;1.17;;
19137;SDS011;68178;52.188;5.598;2023-04-25T10:27:00;4.40;;;1.40;;
19137;SDS011;68178;52.188;5.598;2023-04-25T10:29:29;5.78;;;1.17;;
19137;SDS011;68178;52.188;5.598;2023-04-25T10:31:54;3.10;;;1.38;;
19137;SDS011;68178;52.188;5.598;2023-04-25T10:34:23;3.40;;;1.30;;
19137;SDS011;68178;52.188;5.598;2023-04-25T10:36:51;4.13;;;0.90;;
19137;SDS011;68178;52.188;5.598;2023-04-25T10:39:28;2.67;;;0.80;;
19137;SDS011;68178;52.188;5.598;2023-04-25T10:41:57;4.57;;;1.02;;
19137;SDS011;68178;52.188;5.598;2023-04-25T10:44:26;3.10;;;0.90;;
19137;SDS011;68178;52.188;5.598;2023-04-25T10:46:55;4.13;;;1.10;;
19137;SDS011;68178;52.188;5.598;2023-04-25T10:49:35;5.25;;;1.40;;
19137;SDS011;68178;52.188;5.598;2023-04-25T10:52:12;3.30;;;1.50;;
19137;SDS011;68178;52.188;5.598;2023-04-25T10:54:46;6.00;;;0.95;;
19137;SDS011;68178;52.188;5.598;2023-04-25T11:02:30;5.28;;;1.50;;
19137;SDS011;68178;52.188;5.598;2023-04-25T11:04:56;4.18;;;1.40;;
19137;SDS011;68178;52.188;5.598;2023-04-25T11:08:05;2.97;;;1.00;;
19137;SDS011;68178;52.188;5.598;2023-04-25T11:10:17;5.43;;;1.55;;
19137;SDS011;68178;52.188;5.598;2023-04-25T11:12:44;3.22;;;1.40;;
19137;SDS011;68178;52.188;5.598;2023-04-25T11:15:11;4.40;;;1.85;;
19137;SDS011;68178;52.188;5.598;2023-04-25T11:17:37;3.67;;;1.13;;
19137;SDS011;68178;52.188;5.598;2023-04-25T11:20:05;4.15;;;1.63;;
19137;SDS011;68178;52.188;5.598;2023-04-25T11:22:33;3.42;;;1.33;;
19137;SDS011;68178;52.188;5.598;2023-04-25T11:25:04;7.35;;;1.20;;
19137;SDS011;68178;52.188;5.598;2023-04-25T11:27:31;5.05;;;1.33;;
19137;SDS011;68178;52.188;5.598;2023-04-25T11:29:56;5.60;;;1.15;;
19137;SDS011;68178;52.188;5.598;2023-04-25T11:32:22;4.00;;;1.02;;
19137;SDS011;68178;52.188;5.598;2023-04-25T11:34:48;4.60;;;0.93;;
19137;SDS011;68178;52.188;5.598;2023-04-25T11:37:13;4.35;;;0.95;;
19137;SDS011;68178;52.188;5.598;2023-04-25T11:39:43;2.83;;;0.95;;
19137;SDS011;68178;52.188;5.598;2023-04-25T11:42:10;5.95;;;1.20;;
19137;SDS011;68178;52.188;5.598;2023-04-25T11:44:35;4.30;;;1.30;;
19137;SDS011;68178;52.188;5.598;2023-04-25T11:47:03;8.15;;;1.52;;
19137;SDS011;68178;52.188;5.598;2023-04-25T11:49:31;6.97;;;2.05;;
19137;SDS011;68178;52.188;5.598;2023-04-25T11:51:57;8.70;;;1.45;;
19137;SDS011;68178;52.188;5.598;2023-04-25T11:54:23;7.25;;;1.50;;
19137;SDS011;68178;52.188;5.598;2023-04-25T11:56:48;11.52;;;1.63;;
19137;SDS011;68178;52.188;5.598;2023-04-25T11:59:14;5.78;;;1.35;;
19137;SDS011;68178;52.188;5.598;2023-04-25T12:01:46;6.53;;;1.25;;
19137;SDS011;68178;52.188;5.598;2023-04-25T12:04:18;5.72;;;1.40;;
19137;SDS011;68178;52.188;5.598;2023-04-25T12:06:45;6.20;;;1.50;;
19137;SDS011;68178;52.188;5.598;2023-04-25T12:09:12;4.57;;;1.33;;
19137;SDS011;68178;52.188;5.598;2023-04-25T12:11:56;6.80;;;1.35;;
19137;SDS011;68178;52.188;5.598;2023-04-25T12:14:29;3.55;;;1.20;;
19137;SDS011;68178;52.188;5.598;2023-04-25T12:17:00;4.90;;;1.33;;
19137;SDS011;68178;52.188;5.598;2023-04-25T12:19:37;3.58;;;1.13;;
19137;SDS011;68178;52.188;5.598;2023-04-25T12:22:18;4.20;;;1.10;;
19137;SDS011;68178;52.188;5.598;2023-04-25T12:24:48;5.35;;;0.93;;
19137;SDS011;68178;52.188;5.598;2023-04-25T12:27:16;3.22;;;1.20;;
19137;SDS011;68178;52.188;5.598;2023-04-25T12:29:50;4.15;;;0.90;;
19137;SDS011;68178;52.188;5.598;2023-04-25T12:32:17;3.38;;;1.10;;
19137;SDS011;68178;52.188;5.598;2023-04-25T12:34:43;4.18;;;1.00;;
19137;SDS011;68178;52.188;5.598;2023-04-25T12:37:08;3.00;;;0.77;;
19137;SDS011;68178;52.188;5.598;2023-04-25T12:39:34;2.50;;;0.90;;
19137;SDS011;68178;52.188;5.598;2023-04-25T12:42:00;2.63;;;1.02;;
19137;SDS011;68178;52.188;5.598;2023-04-25T12:44:25;4.93;;;1.20;;
19137;SDS011;68178;52.188;5.598;2023-04-25T12:46:51;2.80;;;0.90;;
19137;SDS011;68178;52.188;5.598;2023-04-25T12:49:18;3.30;;;1.20;;
19137;SDS011;68178;52.188;5.598;2023-04-25T12:51:43;3.30;;;0.88;;
19137;SDS011;68178;52.188;5.598;2023-04-25T12:54:09;3.22;;;1.00;;
19137;SDS011;68178;52.188;5.598;2023-04-25T12:56:35;3.97;;;0.80;;
19137;SDS011;68178;52.188;5.598;2023-04-25T12:59:01;3.30;;;0.85;;
19137;SDS011;68178;52.188;5.598;2023-04-25T13:01:27;2.35;;;0.80;;
19137;SDS011;68178;52.188;5.598;2023-04-25T13:03:54;5.30;;;1.02;;
19137;SDS011;68178;52.188;5.598;2023-04-25T13:06:19;2.03;;;0.80;;
19137;SDS011;68178;52.188;5.598;2023-04-25T13:08:46;3.42;;;1.15;;
19137;SDS011;68178;52.188;5.598;2023-04-25T13:11:11;2.65;;;0.90;;
19137;SDS011;68178;52.188;5.598;2023-04-25T13:13:37;3.38;;;0.98;;
19137;SDS011;68178;52.188;5.598;2023-04-25T13:16:03;3.08;;;1.23;;
19137;SDS011;68178;52.188;5.598;2023-04-25T13:18:30;3.53;;;1.50;;
19137;SDS011;68178;52.188;5.598;2023-04-25T13:20:55;1.70;;;0.90;;
19137;SDS011;68178;52.188;5.598;2023-04-25T13:23:22;9.05;;;1.58;;
19137;SDS011;68178;52.188;5.598;2023-04-25T13:25:48;3.92;;;1.10;;
19137;SDS011;68178;52.188;5.598;2023-04-25T13:28:14;4.80;;;1.10;;
19137;SDS011;68178;52.188;5.598;2023-04-25T13:30:40;5.10;;;1.25;;
19137;SDS011;68178;52.188;5.598;2023-04-25T13:33:05;6.25;;;1.42;;
19137;SDS011;68178;52.188;5.598;2023-04-25T13:35:31;3.63;;;1.20;;
19137;SDS011;68178;52.188;5.598;2023-04-25T13:37:58;5.63;;;1.13;;
19137;SDS011;68178;52.188;5.598;2023-04-25T13:40:23;4.90;;;1.13;;
19137;SDS011;68178;52.188;5.598;2023-04-25T13:42:49;5.65;;;1.30;;
19137;SDS011;68178;52.188;5.598;2023-04-25T13:45:16;5.07;;;1.65;;
19137;SDS011;68178;52.188;5.598;2023-04-25T13:47:41;3.83;;;1.20;;
19137;SDS011;68178;52.188;5.598;2023-04-25T13:50:07;4.05;;;1.45;;
19137;SDS011;68178;52.188;5.598;2023-04-25T13:52:33;3.33;;;1.02;;
19137;SDS011;68178;52.188;5.598;2023-04-25T13:54:59;3.38;;;1.58;;
19137;SDS011;68178;52.188;5.598;2023-04-25T13:57:24;3.83;;;1.13;;
19137;SDS011;68178;52.188;5.598;2023-04-25T13:59:50;2.90;;;1.42;;
19137;SDS011;68178;52.188;5.598;2023-04-25T14:02:16;2.90;;;1.50;;
19137;SDS011;68178;52.188;5.598;2023-04-25T14:04:42;5.78;;;1.70;;
19137;SDS011;68178;52.188;5.598;2023-04-25T14:07:10;4.10;;;1.70;;
19137;SDS011;68178;52.188;5.598;2023-04-25T14:09:36;5.93;;;1.58;;
19137;SDS011;68178;52.188;5.598;2023-04-25T14:12:02;4.65;;;1.48;;
19137;SDS011;68178;52.188;5.598;2023-04-25T14:14:28;5.28;;;1.48;;
19137;SDS011;68178;52.188;5.598;2023-04-25T14:16:53;3.33;;;1.08;;
19137;SDS011;68178;52.188;5.598;2023-04-25T14:19:20;3.38;;;1.50;;
19137;SDS011;68178;52.188;5.598;2023-04-25T14:21:46;5.55;;;1.30;;
19137;SDS011;68178;52.188;5.598;2023-04-25T14:24:11;4.47;;;1.45;;
19137;SDS011;68178;52.188;5.598;2023-04-25T14:26:41;5.20;;;1.60;;
19137;SDS011;68178;52.188;5.598;2023-04-25T14:29:07;5.80;;;1.38;;
19137;SDS011;68178;52.188;5.598;2023-04-25T14:31:37;6.30;;;1.25;;
19137;SDS011;68178;52.188;5.598;2023-04-25T14:34:06;3.15;;;1.17;;
19137;SDS011;68178;52.188;5.598;2023-04-25T14:36:32;4.38;;;1.90;;
19137;SDS011;68178;52.188;5.598;2023-04-25T14:38:59;2.50;;;1.08;;
19137;SDS011;68178;52.188;5.598;2023-04-25T14:41:25;5.28;;;1.17;;
19137;SDS011;68178;52.188;5.598;2023-04-25T14:43:57;4.13;;;1.75;;
19137;SDS011;68178;52.188;5.598;2023-04-25T14:46:22;5.10;;;1.40;;
19137;SDS011;68178;52.188;5.598;2023-04-25T14:48:48;5.57;;;1.98;;
19137;SDS011;68178;52.188;5.598;2023-04-25T14:51:14;6.55;;;1.55;;